< < Back
Terminal Aerodrome Forecast


Current Version              Previous Versions:   1  2  3  4  5  6  7  8  9  

Terminal Aerodrome Forecast

209
FTUS42 KILM 240536
TAFFLO
TAF
KFLO 240536Z 2406/2506 13007KT P6SM SCT050=



Latest METAR

116
SAUS70 KWBC 240700 RRG
MTRFLO
METAR KFLO 240653Z 00000KT 10SM CLR 16/14 A3035 RMK AO2 SLP276
T01560139


USA.gov is the U.S. government's official web portal to all federal, state and local government web resources and services.